N1615A PKMJ-PHNL
Flight info
| Callsign | N1615A |
|---|---|
| Flight time | N/A |
| Altitude | 37000 |
| Route | MAJ R584 MANRE/N0461F390 R584 CHOKO OPACA4 |
| Aircraft | CL60/M-SBDE1E2E3FGHIJ4J5J7M3RWXYZ/LB1V1D1 |
Departure
| Time | 2026-04-27 22:29 |
|---|---|
| Airport | Marshall Islands International Airport (PKMJ) |
Arrival
| Time | N/A |
|---|---|
| Airport | Daniel K. Inouye International Airport (PHNL) |
| Time | Latitude | Longitude | Altitude | Speed | Heading |
|---|---|---|---|---|---|
| 2026-04-27 22:14 | 7.06829 | 171.28099 | 16 ft | 0 kts | 31° |
| 2026-04-27 22:28 | 7.06822 | 171.28133 | 16 ft | 7 kts | 131° |
| 2026-04-27 22:28 | 7.06796 | 171.28180 | 17 ft | 8 kts | 106° |
| 2026-04-27 22:28 | 7.06769 | 171.28239 | 17 ft | 10 kts | 158° |
| 2026-04-27 22:28 | 7.06733 | 171.28149 | 16 ft | 36 kts | 257° |
| 2026-04-27 22:29 | 7.06598 | 171.27583 | 23 ft | 126 kts | 256° |
| 2026-04-27 22:29 | 7.06332 | 171.26489 | 143 ft | 181 kts | 257° |
| 2026-04-27 22:29 | 7.06065 | 171.25200 | 774 ft | 197 kts | 269° |
| 2026-04-27 22:29 | 7.06289 | 171.23816 | 1444 ft | 208 kts | 290° |
| 2026-04-27 22:30 | 7.07032 | 171.22584 | 2314 ft | 203 kts | 327° |
| 2026-04-27 22:30 | 7.08344 | 171.22110 | 2959 ft | 204 kts | 9° |
| 2026-04-27 22:30 | 7.09598 | 171.22618 | 3634 ft | 200 kts | 46° |
| 2026-04-27 22:30 | 7.10261 | 171.23906 | 4006 ft | 217 kts | 84° |
| 2026-04-27 22:31 | 7.09923 | 171.25421 | 4559 ft | 233 kts | 115° |
| 2026-04-27 22:31 | 7.09117 | 171.26889 | 5138 ft | 254 kts | 118° |
| 2026-04-27 22:31 | 7.08457 | 171.28587 | 6025 ft | 259 kts | 98° |
| 2026-04-27 22:31 | 7.08549 | 171.30370 | 6954 ft | 263 kts | 74° |
| 2026-04-27 22:32 | 7.09341 | 171.32069 | 7833 ft | 270 kts | 62° |
| 2026-04-27 22:32 | 7.10259 | 171.33730 | 8794 ft | 273 kts | 63° |
| 2026-04-27 22:32 | 7.11183 | 171.35417 | 9608 ft | 280 kts | 62° |
| 2026-04-27 22:32 | 7.12153 | 171.37190 | 10374 ft | 291 kts | 62° |
| 2026-04-27 22:33 | 7.13200 | 171.39108 | 10501 ft | 323 kts | 62° |
| 2026-04-27 22:33 | 7.14311 | 171.41100 | 10985 ft | 338 kts | 59° |
| 2026-04-27 22:33 | 7.15868 | 171.42859 | 11910 ft | 339 kts | 41° |
| 2026-04-27 22:33 | 7.17630 | 171.44495 | 12419 ft | 349 kts | 54° |
| 2026-04-27 22:34 | 7.18747 | 171.46626 | 13307 ft | 346 kts | 67° |
| 2026-04-27 22:34 | 7.19721 | 171.48883 | 14182 ft | 346 kts | 67° |
| 2026-04-27 22:34 | 7.20698 | 171.51115 | 14905 ft | 349 kts | 67° |
| 2026-04-27 22:34 | 7.21703 | 171.53372 | 15549 ft | 354 kts | 67° |
| 2026-04-27 22:35 | 7.22727 | 171.55620 | 16169 ft | 358 kts | 67° |
| 2026-04-27 22:35 | 7.23808 | 171.57924 | 16794 ft | 362 kts | 66° |
| 2026-04-27 22:35 | 7.24933 | 171.60229 | 17364 ft | 367 kts | 65° |
| 2026-04-27 22:35 | 7.26143 | 171.62544 | 17952 ft | 371 kts | 63° |
| 2026-04-27 22:36 | 7.27386 | 171.64830 | 18562 ft | 373 kts | 63° |
| 2026-04-27 22:36 | 7.28659 | 171.67168 | 19122 ft | 377 kts | 63° |
| 2026-04-27 22:36 | 7.29935 | 171.69511 | 19669 ft | 380 kts | 63° |
| 2026-04-27 22:36 | 7.31210 | 171.71851 | 20164 ft | 384 kts | 63° |